sensor_id;sensor_type;location;lat;lon;timestamp;P1;durP1;ratioP1;P2;durP2;ratioP2
68633;SDS011;55625;47.072;22.192;2022-11-20T00:01:08;5.45;;;3.45;;
68633;SDS011;55625;47.072;22.192;2022-11-20T00:03:39;6.40;;;3.33;;
68633;SDS011;55625;47.072;22.192;2022-11-20T00:06:06;7.47;;;2.63;;
68633;SDS011;55625;47.072;22.192;2022-11-20T00:08:35;3.75;;;1.70;;
68633;SDS011;55625;47.072;22.192;2022-11-20T00:11:05;6.70;;;2.63;;
68633;SDS011;55625;47.072;22.192;2022-11-20T00:13:33;6.18;;;3.45;;
68633;SDS011;55625;47.072;22.192;2022-11-20T00:16:00;4.07;;;2.30;;
68633;SDS011;55625;47.072;22.192;2022-11-20T00:18:28;5.28;;;3.05;;
68633;SDS011;55625;47.072;22.192;2022-11-20T00:21:04;3.90;;;1.98;;
68633;SDS011;55625;47.072;22.192;2022-11-20T00:23:35;7.38;;;4.07;;
68633;SDS011;55625;47.072;22.192;2022-11-20T00:26:05;6.17;;;2.73;;
68633;SDS011;55625;47.072;22.192;2022-11-20T00:28:35;6.57;;;2.70;;
68633;SDS011;55625;47.072;22.192;2022-11-20T00:31:01;5.40;;;2.38;;
68633;SDS011;55625;47.072;22.192;2022-11-20T00:33:33;4.05;;;1.48;;
68633;SDS011;55625;47.072;22.192;2022-11-20T00:36:00;5.60;;;2.85;;
68633;SDS011;55625;47.072;22.192;2022-11-20T00:38:29;5.47;;;1.93;;
68633;SDS011;55625;47.072;22.192;2022-11-20T00:41:00;8.00;;;5.40;;
68633;SDS011;55625;47.072;22.192;2022-11-20T00:43:28;7.97;;;4.18;;
68633;SDS011;55625;47.072;22.192;2022-11-20T00:46:00;4.70;;;2.70;;
68633;SDS011;55625;47.072;22.192;2022-11-20T00:48:31;4.35;;;2.38;;
68633;SDS011;55625;47.072;22.192;2022-11-20T00:50:57;4.43;;;2.83;;
68633;SDS011;55625;47.072;22.192;2022-11-20T00:53:23;6.75;;;2.92;;
68633;SDS011;55625;47.072;22.192;2022-11-20T00:55:53;6.50;;;2.95;;
68633;SDS011;55625;47.072;22.192;2022-11-20T00:58:25;6.07;;;2.25;;
68633;SDS011;55625;47.072;22.192;2022-11-20T01:00:59;4.50;;;1.70;;
68633;SDS011;55625;47.072;22.192;2022-11-20T01:03:34;5.47;;;2.50;;
68633;SDS011;55625;47.072;22.192;2022-11-20T01:06:05;4.20;;;2.03;;
68633;SDS011;55625;47.072;22.192;2022-11-20T01:08:35;8.23;;;2.90;;
68633;SDS011;55625;47.072;22.192;2022-11-20T01:11:09;4.80;;;2.70;;
68633;SDS011;55625;47.072;22.192;2022-11-20T01:13:38;5.72;;;2.75;;
68633;SDS011;55625;47.072;22.192;2022-11-20T01:18:38;23.15;;;11.07;;
68633;SDS011;55625;47.072;22.192;2022-11-20T01:21:09;16.85;;;6.88;;
68633;SDS011;55625;47.072;22.192;2022-11-20T01:23:47;9.98;;;5.18;;
68633;SDS011;55625;47.072;22.192;2022-11-20T01:26:18;5.25;;;2.45;;
68633;SDS011;55625;47.072;22.192;2022-11-20T01:28:50;3.13;;;1.57;;
68633;SDS011;55625;47.072;22.192;2022-11-20T01:31:18;3.50;;;1.80;;
68633;SDS011;55625;47.072;22.192;2022-11-20T01:33:52;4.95;;;2.53;;
68633;SDS011;55625;47.072;22.192;2022-11-20T01:36:21;3.55;;;1.60;;
68633;SDS011;55625;47.072;22.192;2022-11-20T01:38:53;3.63;;;1.30;;
68633;SDS011;55625;47.072;22.192;2022-11-20T01:41:21;6.97;;;2.93;;
68633;SDS011;55625;47.072;22.192;2022-11-20T01:44:09;1.67;;;0.82;;
68633;SDS011;55625;47.072;22.192;2022-11-20T01:46:40;2.15;;;0.80;;
68633;SDS011;55625;47.072;22.192;2022-11-20T01:52:15;2.30;;;0.95;;
68633;SDS011;55625;47.072;22.192;2022-11-20T01:54:48;3.73;;;0.97;;
68633;SDS011;55625;47.072;22.192;2022-11-20T01:57:27;1.45;;;0.93;;
68633;SDS011;55625;47.072;22.192;2022-11-20T01:59:57;1.30;;;0.47;;
68633;SDS011;55625;47.072;22.192;2022-11-20T02:02:31;1.30;;;0.40;;
68633;SDS011;55625;47.072;22.192;2022-11-20T02:04:58;2.58;;;0.70;;
68633;SDS011;55625;47.072;22.192;2022-11-20T02:07:37;1.50;;;0.53;;
68633;SDS011;55625;47.072;22.192;2022-11-20T02:10:03;1.55;;;0.63;;
68633;SDS011;55625;47.072;22.192;2022-11-20T02:12:29;1.25;;;0.40;;
68633;SDS011;55625;47.072;22.192;2022-11-20T02:15:14;1.63;;;0.73;;
68633;SDS011;55625;47.072;22.192;2022-11-20T02:17:39;1.93;;;0.80;;
68633;SDS011;55625;47.072;22.192;2022-11-20T02:20:05;1.17;;;0.30;;
68633;SDS011;55625;47.072;22.192;2022-11-20T02:22:35;1.52;;;0.85;;
68633;SDS011;55625;47.072;22.192;2022-11-20T02:25:22;1.55;;;0.95;;
68633;SDS011;55625;47.072;22.192;2022-11-20T02:27:50;1.73;;;0.87;;
68633;SDS011;55625;47.072;22.192;2022-11-20T02:30:16;1.08;;;0.55;;
68633;SDS011;55625;47.072;22.192;2022-11-20T02:32:42;3.50;;;0.85;;
68633;SDS011;55625;47.072;22.192;2022-11-20T02:37:49;1.27;;;0.30;;
68633;SDS011;55625;47.072;22.192;2022-11-20T02:40:18;2.80;;;0.83;;
68633;SDS011;55625;47.072;22.192;2022-11-20T02:42:44;1.15;;;0.63;;
68633;SDS011;55625;47.072;22.192;2022-11-20T02:45:10;1.20;;;0.57;;
68633;SDS011;55625;47.072;22.192;2022-11-20T02:47:37;1.75;;;0.65;;
68633;SDS011;55625;47.072;22.192;2022-11-20T02:50:03;1.03;;;0.30;;
68633;SDS011;55625;47.072;22.192;2022-11-20T02:52:30;1.88;;;0.63;;
68633;SDS011;55625;47.072;22.192;2022-11-20T02:54:56;1.85;;;0.40;;
68633;SDS011;55625;47.072;22.192;2022-11-20T02:57:22;3.63;;;0.85;;
68633;SDS011;55625;47.072;22.192;2022-11-20T02:59:48;3.37;;;0.57;;
68633;SDS011;55625;47.072;22.192;2022-11-20T03:02:14;0.80;;;0.30;;
68633;SDS011;55625;47.072;22.192;2022-11-20T03:04:39;2.40;;;0.93;;
68633;SDS011;55625;47.072;22.192;2022-11-20T03:07:05;2.43;;;0.30;;
68633;SDS011;55625;47.072;22.192;2022-11-20T03:09:32;3.85;;;1.15;;
68633;SDS011;55625;47.072;22.192;2022-11-20T03:11:58;1.48;;;0.45;;
68633;SDS011;55625;47.072;22.192;2022-11-20T03:14:24;4.00;;;2.13;;
68633;SDS011;55625;47.072;22.192;2022-11-20T03:16:50;1.30;;;0.52;;
68633;SDS011;55625;47.072;22.192;2022-11-20T03:19:16;1.27;;;0.80;;
68633;SDS011;55625;47.072;22.192;2022-11-20T03:21:42;2.87;;;1.47;;
68633;SDS011;55625;47.072;22.192;2022-11-20T03:24:07;2.38;;;0.88;;
68633;SDS011;55625;47.072;22.192;2022-11-20T03:26:33;1.00;;;0.40;;
68633;SDS011;55625;47.072;22.192;2022-11-20T03:29:00;2.40;;;1.20;;
68633;SDS011;55625;47.072;22.192;2022-11-20T03:31:30;2.33;;;0.77;;
68633;SDS011;55625;47.072;22.192;2022-11-20T03:33:59;1.63;;;0.63;;
68633;SDS011;55625;47.072;22.192;2022-11-20T03:36:26;4.30;;;1.35;;
68633;SDS011;55625;47.072;22.192;2022-11-20T03:38:53;1.35;;;0.52;;
68633;SDS011;55625;47.072;22.192;2022-11-20T03:41:30;1.30;;;0.50;;
68633;SDS011;55625;47.072;22.192;2022-11-20T03:44:01;1.00;;;0.45;;
68633;SDS011;55625;47.072;22.192;2022-11-20T03:46:29;1.50;;;0.73;;
68633;SDS011;55625;47.072;22.192;2022-11-20T03:48:56;1.52;;;0.20;;
68633;SDS011;55625;47.072;22.192;2022-11-20T03:51:26;2.40;;;1.00;;
68633;SDS011;55625;47.072;22.192;2022-11-20T03:53:58;1.63;;;0.87;;
68633;SDS011;55625;47.072;22.192;2022-11-20T03:56:29;2.00;;;0.98;;
68633;SDS011;55625;47.072;22.192;2022-11-20T03:58:57;2.20;;;0.80;;
68633;SDS011;55625;47.072;22.192;2022-11-20T04:01:27;1.52;;;0.85;;
68633;SDS011;55625;47.072;22.192;2022-11-20T04:03:57;2.13;;;1.13;;
68633;SDS011;55625;47.072;22.192;2022-11-20T04:06:24;1.63;;;0.73;;
68633;SDS011;55625;47.072;22.192;2022-11-20T04:08:58;1.17;;;0.80;;
68633;SDS011;55625;47.072;22.192;2022-11-20T04:11:25;1.58;;;0.95;;
68633;SDS011;55625;47.072;22.192;2022-11-20T04:13:57;2.60;;;1.35;;
68633;SDS011;55625;47.072;22.192;2022-11-20T04:16:25;3.40;;;1.00;;
68633;SDS011;55625;47.072;22.192;2022-11-20T04:18:55;4.80;;;1.20;;
68633;SDS011;55625;47.072;22.192;2022-11-20T04:21:24;1.48;;;0.90;;
68633;SDS011;55625;47.072;22.192;2022-11-20T04:23:51;2.25;;;0.82;;
68633;SDS011;55625;47.072;22.192;2022-11-20T04:26:18;1.67;;;0.82;;
68633;SDS011;55625;47.072;22.192;2022-11-20T04:28:44;2.10;;;1.13;;
68633;SDS011;55625;47.072;22.192;2022-11-20T04:31:12;1.40;;;0.60;;
68633;SDS011;55625;47.072;22.192;2022-11-20T04:33:40;1.85;;;0.73;;
68633;SDS011;55625;47.072;22.192;2022-11-20T04:36:11;1.35;;;0.35;;
68633;SDS011;55625;47.072;22.192;2022-11-20T04:38:55;1.20;;;0.45;;
68633;SDS011;55625;47.072;22.192;2022-11-20T04:41:24;2.10;;;0.70;;
68633;SDS011;55625;47.072;22.192;2022-11-20T04:43:56;3.40;;;0.68;;
68633;SDS011;55625;47.072;22.192;2022-11-20T04:46:27;6.22;;;1.80;;
68633;SDS011;55625;47.072;22.192;2022-11-20T04:48:53;4.30;;;1.95;;
68633;SDS011;55625;47.072;22.192;2022-11-20T04:51:19;5.00;;;2.42;;
68633;SDS011;55625;47.072;22.192;2022-11-20T04:53:45;20.87;;;6.13;;
68633;SDS011;55625;47.072;22.192;2022-11-20T04:56:11;11.20;;;6.82;;
68633;SDS011;55625;47.072;22.192;2022-11-20T04:58:38;10.25;;;4.40;;
68633;SDS011;55625;47.072;22.192;2022-11-20T05:01:18;7.82;;;4.43;;
68633;SDS011;55625;47.072;22.192;2022-11-20T05:03:46;6.47;;;3.03;;
68633;SDS011;55625;47.072;22.192;2022-11-20T05:06:13;6.43;;;3.92;;
68633;SDS011;55625;47.072;22.192;2022-11-20T05:08:41;6.50;;;3.13;;
68633;SDS011;55625;47.072;22.192;2022-11-20T05:11:18;6.45;;;3.65;;
68633;SDS011;55625;47.072;22.192;2022-11-20T05:13:45;8.13;;;5.07;;
68633;SDS011;55625;47.072;22.192;2022-11-20T05:16:13;7.50;;;4.57;;
68633;SDS011;55625;47.072;22.192;2022-11-20T05:18:42;8.18;;;5.10;;
68633;SDS011;55625;47.072;22.192;2022-11-20T05:21:08;9.73;;;4.65;;
68633;SDS011;55625;47.072;22.192;2022-11-20T05:23:35;12.80;;;4.60;;
68633;SDS011;55625;47.072;22.192;2022-11-20T05:26:02;5.53;;;2.23;;
68633;SDS011;55625;47.072;22.192;2022-11-20T05:28:29;9.52;;;3.35;;
68633;SDS011;55625;47.072;22.192;2022-11-20T05:31:04;6.85;;;3.88;;
68633;SDS011;55625;47.072;22.192;2022-11-20T05:33:42;5.45;;;2.88;;
68633;SDS011;55625;47.072;22.192;2022-11-20T05:36:10;9.20;;;4.22;;
68633;SDS011;55625;47.072;22.192;2022-11-20T05:38:37;6.20;;;3.20;;
68633;SDS011;55625;47.072;22.192;2022-11-20T05:41:07;7.78;;;4.50;;
68633;SDS011;55625;47.072;22.192;2022-11-20T05:43:35;6.47;;;3.25;;
68633;SDS011;55625;47.072;22.192;2022-11-20T05:46:03;7.20;;;3.22;;
68633;SDS011;55625;47.072;22.192;2022-11-20T05:48:31;14.00;;;2.78;;
68633;SDS011;55625;47.072;22.192;2022-11-20T05:50:59;7.37;;;2.40;;
68633;SDS011;55625;47.072;22.192;2022-11-20T05:53:27;4.03;;;2.08;;
68633;SDS011;55625;47.072;22.192;2022-11-20T05:55:59;8.43;;;4.10;;
68633;SDS011;55625;47.072;22.192;2022-11-20T05:58:28;3.38;;;2.08;;
68633;SDS011;55625;47.072;22.192;2022-11-20T06:01:02;3.05;;;1.67;;
68633;SDS011;55625;47.072;22.192;2022-11-20T06:03:38;2.93;;;1.67;;
68633;SDS011;55625;47.072;22.192;2022-11-20T06:06:05;4.28;;;1.95;;
68633;SDS011;55625;47.072;22.192;2022-11-20T06:08:32;4.07;;;2.08;;
68633;SDS011;55625;47.072;22.192;2022-11-20T06:10:58;11.23;;;2.47;;
68633;SDS011;55625;47.072;22.192;2022-11-20T06:13:28;4.55;;;2.78;;
68633;SDS011;55625;47.072;22.192;2022-11-20T06:15:53;2.60;;;1.07;;
68633;SDS011;55625;47.072;22.192;2022-11-20T06:18:19;2.47;;;1.98;;
68633;SDS011;55625;47.072;22.192;2022-11-20T06:20:46;7.90;;;2.03;;
68633;SDS011;55625;47.072;22.192;2022-11-20T06:23:13;4.23;;;1.93;;
68633;SDS011;55625;47.072;22.192;2022-11-20T06:25:42;3.25;;;1.90;;
68633;SDS011;55625;47.072;22.192;2022-11-20T06:28:08;7.28;;;2.50;;
68633;SDS011;55625;47.072;22.192;2022-11-20T06:30:34;9.00;;;4.88;;
68633;SDS011;55625;47.072;22.192;2022-11-20T06:33:02;7.25;;;4.50;;
68633;SDS011;55625;47.072;22.192;2022-11-20T06:35:28;6.73;;;4.20;;
68633;SDS011;55625;47.072;22.192;2022-11-20T06:37:53;5.20;;;2.78;;
68633;SDS011;55625;47.072;22.192;2022-11-20T06:40:21;5.13;;;2.85;;
68633;SDS011;55625;47.072;22.192;2022-11-20T06:42:47;4.20;;;1.43;;
68633;SDS011;55625;47.072;22.192;2022-11-20T06:45:12;6.18;;;3.42;;
68633;SDS011;55625;47.072;22.192;2022-11-20T06:47:38;4.57;;;2.63;;
68633;SDS011;55625;47.072;22.192;2022-11-20T06:50:04;5.00;;;3.00;;
68633;SDS011;55625;47.072;22.192;2022-11-20T06:52:30;6.07;;;3.80;;
68633;SDS011;55625;47.072;22.192;2022-11-20T06:54:57;5.47;;;1.95;;
68633;SDS011;55625;47.072;22.192;2022-11-20T06:57:23;5.28;;;2.80;;
68633;SDS011;55625;47.072;22.192;2022-11-20T06:59:49;7.13;;;3.30;;
68633;SDS011;55625;47.072;22.192;2022-11-20T07:02:15;6.22;;;3.55;;
68633;SDS011;55625;47.072;22.192;2022-11-20T07:04:41;5.70;;;3.75;;
68633;SDS011;55625;47.072;22.192;2022-11-20T07:07:07;6.20;;;2.77;;
68633;SDS011;55625;47.072;22.192;2022-11-20T07:09:33;8.32;;;3.58;;
68633;SDS011;55625;47.072;22.192;2022-11-20T07:11:59;8.23;;;3.72;;
68633;SDS011;55625;47.072;22.192;2022-11-20T07:14:25;8.70;;;3.20;;
68633;SDS011;55625;47.072;22.192;2022-11-20T07:16:51;5.53;;;3.10;;
68633;SDS011;55625;47.072;22.192;2022-11-20T07:19:17;5.60;;;3.17;;
68633;SDS011;55625;47.072;22.192;2022-11-20T07:21:42;4.87;;;3.27;;
68633;SDS011;55625;47.072;22.192;2022-11-20T07:24:08;7.53;;;4.68;;
68633;SDS011;55625;47.072;22.192;2022-11-20T07:26:34;2.97;;;2.27;;
68633;SDS011;55625;47.072;22.192;2022-11-20T07:29:00;5.93;;;3.63;;
68633;SDS011;55625;47.072;22.192;2022-11-20T07:31:26;4.05;;;2.95;;
68633;SDS011;55625;47.072;22.192;2022-11-20T07:33:52;6.33;;;2.87;;
68633;SDS011;55625;47.072;22.192;2022-11-20T07:36:17;3.92;;;2.65;;
68633;SDS011;55625;47.072;22.192;2022-11-20T07:38:43;6.03;;;3.63;;
68633;SDS011;55625;47.072;22.192;2022-11-20T07:41:09;7.90;;;4.03;;
68633;SDS011;55625;47.072;22.192;2022-11-20T07:43:35;4.18;;;3.15;;
68633;SDS011;55625;47.072;22.192;2022-11-20T07:46:01;7.17;;;4.53;;
68633;SDS011;55625;47.072;22.192;2022-11-20T07:48:26;8.50;;;5.10;;
68633;SDS011;55625;47.072;22.192;2022-11-20T07:50:55;5.40;;;3.10;;
68633;SDS011;55625;47.072;22.192;2022-11-20T07:53:22;5.70;;;3.20;;
68633;SDS011;55625;47.072;22.192;2022-11-20T07:55:48;8.17;;;4.60;;
68633;SDS011;55625;47.072;22.192;2022-11-20T07:58:17;8.90;;;4.32;;
68633;SDS011;55625;47.072;22.192;2022-11-20T08:00:44;7.32;;;3.58;;
68633;SDS011;55625;47.072;22.192;2022-11-20T08:03:11;6.22;;;3.47;;
68633;SDS011;55625;47.072;22.192;2022-11-20T08:05:37;10.38;;;6.53;;
68633;SDS011;55625;47.072;22.192;2022-11-20T08:08:03;8.80;;;4.27;;
68633;SDS011;55625;47.072;22.192;2022-11-20T08:10:29;8.77;;;4.10;;
68633;SDS011;55625;47.072;22.192;2022-11-20T08:12:55;8.23;;;3.88;;
68633;SDS011;55625;47.072;22.192;2022-11-20T08:15:40;7.83;;;4.20;;
68633;SDS011;55625;47.072;22.192;2022-11-20T08:18:10;10.63;;;5.45;;
68633;SDS011;55625;47.072;22.192;2022-11-20T08:20:37;8.90;;;5.50;;
68633;SDS011;55625;47.072;22.192;2022-11-20T08:23:04;8.50;;;4.45;;
68633;SDS011;55625;47.072;22.192;2022-11-20T08:25:31;7.07;;;4.68;;
68633;SDS011;55625;47.072;22.192;2022-11-20T08:27:59;4.67;;;2.03;;
68633;SDS011;55625;47.072;22.192;2022-11-20T08:30:26;7.93;;;3.97;;
68633;SDS011;55625;47.072;22.192;2022-11-20T08:32:52;5.28;;;3.33;;
68633;SDS011;55625;47.072;22.192;2022-11-20T08:35:19;9.05;;;3.42;;
68633;SDS011;55625;47.072;22.192;2022-11-20T08:37:47;10.98;;;4.35;;
68633;SDS011;55625;47.072;22.192;2022-11-20T08:40:13;7.93;;;3.93;;
68633;SDS011;55625;47.072;22.192;2022-11-20T08:42:47;9.75;;;4.50;;
68633;SDS011;55625;47.072;22.192;2022-11-20T08:45:14;8.15;;;6.10;;
68633;SDS011;55625;47.072;22.192;2022-11-20T08:47:41;7.38;;;3.50;;
68633;SDS011;55625;47.072;22.192;2022-11-20T08:50:08;10.18;;;5.25;;
68633;SDS011;55625;47.072;22.192;2022-11-20T08:52:35;8.47;;;4.17;;
68633;SDS011;55625;47.072;22.192;2022-11-20T08:55:01;17.10;;;9.40;;
68633;SDS011;55625;47.072;22.192;2022-11-20T08:57:31;17.15;;;12.13;;
68633;SDS011;55625;47.072;22.192;2022-11-20T09:00:00;70.70;;;35.00;;
68633;SDS011;55625;47.072;22.192;2022-11-20T09:02:27;21.17;;;13.90;;
68633;SDS011;55625;47.072;22.192;2022-11-20T09:04:53;11.07;;;4.37;;
68633;SDS011;55625;47.072;22.192;2022-11-20T09:07:19;9.43;;;5.50;;
68633;SDS011;55625;47.072;22.192;2022-11-20T09:09:45;7.07;;;4.47;;
68633;SDS011;55625;47.072;22.192;2022-11-20T09:12:11;10.50;;;5.32;;
68633;SDS011;55625;47.072;22.192;2022-11-20T09:14:37;15.10;;;5.53;;
68633;SDS011;55625;47.072;22.192;2022-11-20T09:17:03;13.13;;;6.45;;
68633;SDS011;55625;47.072;22.192;2022-11-20T09:19:29;10.27;;;4.67;;
68633;SDS011;55625;47.072;22.192;2022-11-20T09:21:54;17.50;;;7.20;;
68633;SDS011;55625;47.072;22.192;2022-11-20T09:24:20;19.50;;;7.43;;
68633;SDS011;55625;47.072;22.192;2022-11-20T09:26:46;18.43;;;10.13;;
68633;SDS011;55625;47.072;22.192;2022-11-20T09:29:12;12.18;;;6.50;;
68633;SDS011;55625;47.072;22.192;2022-11-20T09:31:38;11.63;;;5.05;;
68633;SDS011;55625;47.072;22.192;2022-11-20T09:34:04;11.60;;;5.83;;
68633;SDS011;55625;47.072;22.192;2022-11-20T09:36:30;40.13;;;18.63;;
68633;SDS011;55625;47.072;22.192;2022-11-20T09:38:55;24.65;;;13.15;;
68633;SDS011;55625;47.072;22.192;2022-11-20T09:47:01;38.47;;;19.35;;
68633;SDS011;55625;47.072;22.192;2022-11-20T09:52:45;30.55;;;14.15;;
68633;SDS011;55625;47.072;22.192;2022-11-20T09:55:25;21.53;;;10.27;;
68633;SDS011;55625;47.072;22.192;2022-11-20T09:57:54;14.15;;;7.88;;
68633;SDS011;55625;47.072;22.192;2022-11-20T10:00:21;13.50;;;8.35;;
68633;SDS011;55625;47.072;22.192;2022-11-20T10:06:02;17.45;;;8.55;;
68633;SDS011;55625;47.072;22.192;2022-11-20T10:08:30;55.80;;;21.90;;
68633;SDS011;55625;47.072;22.192;2022-11-20T10:25:38;7.13;;;4.55;;
68633;SDS011;55625;47.072;22.192;2022-11-20T10:31:22;10.05;;;6.22;;
68633;SDS011;55625;47.072;22.192;2022-11-20T10:34:44;11.65;;;6.88;;
68633;SDS011;55625;47.072;22.192;2022-11-20T10:37:30;13.07;;;7.60;;
68633;SDS011;55625;47.072;22.192;2022-11-20T10:40:04;14.70;;;10.45;;
68633;SDS011;55625;47.072;22.192;2022-11-20T10:43:01;19.90;;;11.35;;
68633;SDS011;55625;47.072;22.192;2022-11-20T10:45:46;4.57;;;3.42;;
68633;SDS011;55625;47.072;22.192;2022-11-20T10:48:35;5.72;;;3.35;;
68633;SDS011;55625;47.072;22.192;2022-11-20T10:51:15;7.40;;;4.37;;
68633;SDS011;55625;47.072;22.192;2022-11-20T10:56:41;9.52;;;6.43;;
68633;SDS011;55625;47.072;22.192;2022-11-20T11:02:33;9.32;;;5.78;;
68633;SDS011;55625;47.072;22.192;2022-11-20T11:05:18;10.63;;;4.53;;
68633;SDS011;55625;47.072;22.192;2022-11-20T11:08:11;7.18;;;3.05;;
68633;SDS011;55625;47.072;22.192;2022-11-20T11:13:26;5.65;;;2.72;;
68633;SDS011;55625;47.072;22.192;2022-11-20T11:15:55;6.32;;;3.95;;
68633;SDS011;55625;47.072;22.192;2022-11-20T11:18:31;17.87;;;4.63;;
68633;SDS011;55625;47.072;22.192;2022-11-20T11:21:00;9.95;;;5.63;;
68633;SDS011;55625;47.072;22.192;2022-11-20T11:26:02;7.95;;;3.58;;
68633;SDS011;55625;47.072;22.192;2022-11-20T11:28:31;11.95;;;4.25;;
68633;SDS011;55625;47.072;22.192;2022-11-20T11:30:58;9.30;;;2.80;;
68633;SDS011;55625;47.072;22.192;2022-11-20T11:33:25;6.85;;;4.20;;
68633;SDS011;55625;47.072;22.192;2022-11-20T11:36:00;11.73;;;5.93;;
68633;SDS011;55625;47.072;22.192;2022-11-20T11:38:40;9.50;;;4.85;;
68633;SDS011;55625;47.072;22.192;2022-11-20T11:41:12;29.35;;;14.98;;
68633;SDS011;55625;47.072;22.192;2022-11-20T11:43:54;15.53;;;6.87;;
68633;SDS011;55625;47.072;22.192;2022-11-20T11:46:49;9.18;;;6.75;;
68633;SDS011;55625;47.072;22.192;2022-11-20T11:49:19;8.85;;;5.38;;
68633;SDS011;55625;47.072;22.192;2022-11-20T11:54:50;10.48;;;4.57;;
68633;SDS011;55625;47.072;22.192;2022-11-20T11:57:33;11.30;;;5.97;;
68633;SDS011;55625;47.072;22.192;2022-11-20T12:00:17;6.90;;;3.85;;
68633;SDS011;55625;47.072;22.192;2022-11-20T12:05:24;8.68;;;5.05;;
68633;SDS011;55625;47.072;22.192;2022-11-20T12:10:56;15.27;;;6.73;;
68633;SDS011;55625;47.072;22.192;2022-11-20T12:16:30;7.20;;;5.05;;
68633;SDS011;55625;47.072;22.192;2022-11-20T12:19:03;8.30;;;4.07;;
68633;SDS011;55625;47.072;22.192;2022-11-20T12:21:41;12.15;;;5.18;;
68633;SDS011;55625;47.072;22.192;2022-11-20T12:30:21;8.85;;;4.00;;
68633;SDS011;55625;47.072;22.192;2022-11-20T13:03:06;16.42;;;6.72;;
68633;SDS011;55625;47.072;22.192;2022-11-20T13:05:55;7.78;;;4.28;;
68633;SDS011;55625;47.072;22.192;2022-11-20T13:08:52;9.70;;;8.20;;
68633;SDS011;55625;47.072;22.192;2022-11-20T13:14:11;16.52;;;7.95;;
68633;SDS011;55625;47.072;22.192;2022-11-20T13:19:56;8.85;;;5.35;;
68633;SDS011;55625;47.072;22.192;2022-11-20T13:22:42;11.50;;;6.20;;
68633;SDS011;55625;47.072;22.192;2022-11-20T13:28:03;12.57;;;8.52;;
68633;SDS011;55625;47.072;22.192;2022-11-20T13:30:35;13.98;;;7.30;;
68633;SDS011;55625;47.072;22.192;2022-11-20T13:33:25;16.88;;;8.43;;
68633;SDS011;55625;47.072;22.192;2022-11-20T13:36:04;14.30;;;7.80;;
68633;SDS011;55625;47.072;22.192;2022-11-20T13:38:49;22.83;;;8.85;;
68633;SDS011;55625;47.072;22.192;2022-11-20T13:44:10;33.08;;;12.10;;
68633;SDS011;55625;47.072;22.192;2022-11-20T13:46:48;36.47;;;15.73;;
68633;SDS011;55625;47.072;22.192;2022-11-20T13:49:19;53.00;;;18.33;;
68633;SDS011;55625;47.072;22.192;2022-11-20T13:55:31;44.63;;;18.13;;
68633;SDS011;55625;47.072;22.192;2022-11-20T14:01:10;20.20;;;12.53;;
68633;SDS011;55625;47.072;22.192;2022-11-20T14:03:49;57.90;;;25.58;;
68633;SDS011;55625;47.072;22.192;2022-11-20T14:06:26;28.75;;;16.08;;
68633;SDS011;55625;47.072;22.192;2022-11-20T14:08:56;16.67;;;5.57;;
68633;SDS011;55625;47.072;22.192;2022-11-20T14:11:24;40.72;;;19.77;;
68633;SDS011;55625;47.072;22.192;2022-11-20T14:14:03;24.93;;;10.70;;
68633;SDS011;55625;47.072;22.192;2022-11-20T14:16:40;21.88;;;11.73;;
68633;SDS011;55625;47.072;22.192;2022-11-20T14:21:46;46.22;;;20.67;;
68633;SDS011;55625;47.072;22.192;2022-11-20T14:24:19;58.25;;;23.17;;
68633;SDS011;55625;47.072;22.192;2022-11-20T14:26:49;74.80;;;25.97;;
68633;SDS011;55625;47.072;22.192;2022-11-20T14:29:21;77.25;;;26.92;;
68633;SDS011;55625;47.072;22.192;2022-11-20T14:31:53;75.90;;;32.35;;
68633;SDS011;55625;47.072;22.192;2022-11-20T14:34:22;38.15;;;17.38;;
68633;SDS011;55625;47.072;22.192;2022-11-20T14:36:52;50.72;;;21.98;;
68633;SDS011;55625;47.072;22.192;2022-11-20T14:42:00;14.35;;;6.80;;
68633;SDS011;55625;47.072;22.192;2022-11-20T14:44:32;25.38;;;11.05;;
68633;SDS011;55625;47.072;22.192;2022-11-20T14:47:00;16.17;;;8.95;;
68633;SDS011;55625;47.072;22.192;2022-11-20T14:49:29;19.92;;;9.57;;
68633;SDS011;55625;47.072;22.192;2022-11-20T14:52:00;12.50;;;5.83;;
68633;SDS011;55625;47.072;22.192;2022-11-20T14:54:46;12.65;;;7.00;;
68633;SDS011;55625;47.072;22.192;2022-11-20T14:59:48;12.73;;;7.38;;
68633;SDS011;55625;47.072;22.192;2022-11-20T15:02:14;16.83;;;6.95;;
68633;SDS011;55625;47.072;22.192;2022-11-20T15:04:59;13.90;;;6.37;;
68633;SDS011;55625;47.072;22.192;2022-11-20T15:07:33;14.50;;;7.20;;
68633;SDS011;55625;47.072;22.192;2022-11-20T15:10:24;15.52;;;6.95;;
68633;SDS011;55625;47.072;22.192;2022-11-20T15:12:53;15.40;;;7.10;;
68633;SDS011;55625;47.072;22.192;2022-11-20T15:18:15;28.07;;;13.60;;
68633;SDS011;55625;47.072;22.192;2022-11-20T15:20:46;56.22;;;21.23;;
68633;SDS011;55625;47.072;22.192;2022-11-20T15:23:14;35.28;;;17.05;;
68633;SDS011;55625;47.072;22.192;2022-11-20T15:25:43;26.67;;;12.48;;
68633;SDS011;55625;47.072;22.192;2022-11-20T15:28:16;14.07;;;8.25;;
68633;SDS011;55625;47.072;22.192;2022-11-20T15:30:45;16.60;;;9.27;;
68633;SDS011;55625;47.072;22.192;2022-11-20T15:33:13;14.40;;;6.40;;
68633;SDS011;55625;47.072;22.192;2022-11-20T15:35:40;10.23;;;5.15;;
68633;SDS011;55625;47.072;22.192;2022-11-20T15:38:06;8.82;;;3.97;;
68633;SDS011;55625;47.072;22.192;2022-11-20T15:40:31;7.60;;;3.03;;
68633;SDS011;55625;47.072;22.192;2022-11-20T15:42:57;11.02;;;5.20;;
68633;SDS011;55625;47.072;22.192;2022-11-20T15:45:36;45.22;;;18.25;;
68633;SDS011;55625;47.072;22.192;2022-11-20T15:48:09;83.53;;;29.55;;
68633;SDS011;55625;47.072;22.192;2022-11-20T15:53:37;22.90;;;9.53;;
68633;SDS011;55625;47.072;22.192;2022-11-20T15:56:05;14.32;;;6.40;;
68633;SDS011;55625;47.072;22.192;2022-11-20T15:58:31;23.00;;;7.25;;
68633;SDS011;55625;47.072;22.192;2022-11-20T16:00:57;8.52;;;3.80;;
68633;SDS011;55625;47.072;22.192;2022-11-20T16:03:23;7.60;;;4.43;;
68633;SDS011;55625;47.072;22.192;2022-11-20T16:05:49;5.90;;;4.18;;
68633;SDS011;55625;47.072;22.192;2022-11-20T16:08:15;4.68;;;2.45;;
68633;SDS011;55625;47.072;22.192;2022-11-20T16:10:41;10.43;;;4.45;;
68633;SDS011;55625;47.072;22.192;2022-11-20T16:13:14;7.87;;;4.60;;
68633;SDS011;55625;47.072;22.192;2022-11-20T16:16:01;9.82;;;4.55;;
68633;SDS011;55625;47.072;22.192;2022-11-20T16:18:31;6.20;;;4.05;;
68633;SDS011;55625;47.072;22.192;2022-11-20T16:20:58;8.93;;;5.05;;
68633;SDS011;55625;47.072;22.192;2022-11-20T16:23:24;41.53;;;14.57;;
68633;SDS011;55625;47.072;22.192;2022-11-20T16:25:50;24.07;;;12.00;;
68633;SDS011;55625;47.072;22.192;2022-11-20T16:28:16;30.05;;;14.43;;
68633;SDS011;55625;47.072;22.192;2022-11-20T16:30:43;25.83;;;14.75;;
68633;SDS011;55625;47.072;22.192;2022-11-20T16:33:10;37.88;;;19.75;;
68633;SDS011;55625;47.072;22.192;2022-11-20T16:35:41;21.23;;;13.00;;
68633;SDS011;55625;47.072;22.192;2022-11-20T16:38:08;23.90;;;8.55;;
68633;SDS011;55625;47.072;22.192;2022-11-20T16:40:34;17.25;;;5.93;;
68633;SDS011;55625;47.072;22.192;2022-11-20T16:43:10;9.25;;;5.65;;
68633;SDS011;55625;47.072;22.192;2022-11-20T16:45:42;7.05;;;3.90;;
68633;SDS011;55625;47.072;22.192;2022-11-20T16:48:13;6.33;;;3.33;;
68633;SDS011;55625;47.072;22.192;2022-11-20T16:50:50;7.00;;;4.40;;
68633;SDS011;55625;47.072;22.192;2022-11-20T16:53:18;5.63;;;3.65;;
68633;SDS011;55625;47.072;22.192;2022-11-20T16:55:45;10.73;;;3.80;;